Time;durP1;ratioP1;P1;durP2;ratioP2;P2;SDS_P1;SDS_P2;PMS_P1;PMS_P2;Temp;Humidity;BMP_temperature;BMP_pressure;BME280_temperature;BME280_humidity;BME280_pressure;Samples;Min_cycle;Max_cycle;Signal;HPM_P1;HPM_P2
2022/02/23 00:01:47;;;;;;;9.85;4.45;;;;;;;9.82;54.45;100859.80;1919565;73;21039;-62
2022/02/23 00:04:16;;;;;;;13.50;5.92;;;;;;;9.72;54.61;100858.38;1916539;75;21481;-67
2022/02/23 00:06:44;;;;;;;18.02;6.05;;;;;;;9.60;54.86;100855.72;1918012;73;21062;-64
2022/02/23 00:09:13;;;;;;;11.75;5.90;;;;;;;9.52;55.06;100859.06;1945059;74;21043;-65
2022/02/23 00:11:42;;;;;;;14.35;5.67;;;;;;;9.41;55.27;100865.98;1944987;74;21055;-65
2022/02/23 00:14:11;;;;;;;10.93;4.87;;;;;;;9.38;55.53;100865.60;1944974;74;21105;-63
2022/02/23 00:16:40;;;;;;;12.53;5.67;;;;;;;9.39;55.75;100865.17;1944930;74;21063;-64
2022/02/23 00:19:09;;;;;;;17.65;9.60;;;;;;;9.39;55.83;100873.06;1951568;73;21493;-64
2022/02/23 00:21:38;;;;;;;11.95;7.33;;;;;;;9.38;55.98;100862.12;1955007;73;21006;-64
2022/02/23 00:24:07;;;;;;;12.10;5.10;;;;;;;9.42;56.21;100854.08;1955153;73;21547;-62
2022/02/23 00:26:35;;;;;;;9.28;4.30;;;;;;;9.47;56.48;100857.42;1955308;73;21031;-64
2022/02/23 00:29:05;;;;;;;9.08;4.00;;;;;;;9.53;56.75;100855.05;1955417;73;21147;-63
2022/02/23 00:31:33;;;;;;;9.20;3.72;;;;;;;9.60;57.38;100859.19;1937521;73;21088;-65
2022/02/23 00:34:02;;;;;;;8.45;3.58;;;;;;;9.62;57.17;100857.37;1912988;73;21121;-62
2022/02/23 00:36:31;;;;;;;7.58;3.62;;;;;;;9.64;56.99;100866.06;1910254;75;21520;-62
2022/02/23 00:38:59;;;;;;;10.00;4.12;;;;;;;9.60;56.98;100864.45;1909164;75;21525;-63
2022/02/23 00:41:28;;;;;;;15.43;7.45;;;;;;;9.52;57.05;100874.37;1913492;74;21023;-64
2022/02/23 00:43:56;;;;;;;11.28;5.92;;;;;;;9.44;57.30;100893.02;1935206;74;21095;-61
2022/02/23 00:46:25;;;;;;;11.38;5.47;;;;;;;9.39;57.46;100897.56;1936399;74;21100;-61
2022/02/23 00:48:55;;;;;;;10.72;5.37;;;;;;;9.33;57.68;100911.33;1944991;74;21646;-64
2022/02/23 00:51:23;;;;;;;11.33;4.47;;;;;;;9.27;57.94;100923.75;1945032;74;21563;-64
2022/02/23 00:53:52;;;;;;;12.15;4.50;;;;;;;9.24;57.97;100922.55;1945064;74;21007;-64
2022/02/23 00:56:21;;;;;;;10.35;4.50;;;;;;;9.19;58.10;100915.72;1943597;74;21027;-65
2022/02/23 00:58:49;;;;;;;8.73;4.20;;;;;;;9.12;58.32;100915.03;1944933;74;21046;-64
2022/02/23 01:01:19;;;;;;;8.88;4.05;;;;;;;9.10;58.51;100916.84;1944923;74;21509;-65
2022/02/23 01:03:48;;;;;;;16.73;6.15;;;;;;;9.11;58.65;100921.20;1938744;74;21480;-63
2022/02/23 01:06:17;;;;;;;14.78;6.37;;;;;;;9.13;58.76;100919.39;1916168;75;21511;-63
2022/02/23 01:08:45;;;;;;;17.80;6.33;;;;;;;9.18;59.08;100926.66;1915987;75;21042;-64
2022/02/23 01:11:16;;;;;;;10.05;4.75;;;;;;;9.26;59.66;100925.98;1915948;75;21085;-65
2022/02/23 01:13:44;;;;;;;8.58;4.22;;;;;;;9.31;59.54;100922.35;1917940;74;21077;-64
2022/02/23 01:16:14;;;;;;;8.75;5.80;;;;;;;9.34;59.59;100925.75;1915954;75;21108;-64
2022/02/23 01:18:43;;;;;;;11.97;5.35;;;;;;;9.36;59.56;100925.70;1916075;75;21011;-64
2022/02/23 01:21:12;;;;;;;10.68;5.40;;;;;;;9.40;59.52;100926.01;1915902;75;21035;-64
2022/02/23 01:23:41;;;;;;;15.40;5.25;;;;;;;9.40;59.43;100931.27;1916104;75;21558;-64
2022/02/23 01:26:10;;;;;;;13.53;5.80;;;;;;;9.36;59.50;100944.95;1915996;75;21039;-66
2022/02/23 01:28:39;;;;;;;11.63;5.08;;;;;;;9.32;59.63;100946.42;1919669;74;21109;-64
2022/02/23 01:31:07;;;;;;;13.83;6.90;;;;;;;9.23;59.75;100940.98;1919804;75;21104;-63
2022/02/23 01:33:36;;;;;;;10.15;4.80;;;;;;;9.16;60.21;100945.55;1919837;74;21031;-63
2022/02/23 01:36:05;;;;;;;9.25;5.03;;;;;;;9.18;61.62;100936.31;1919796;75;21559;-63
2022/02/23 01:38:34;;;;;;;10.43;4.85;;;;;;;9.18;61.52;100939.79;1919010;74;21551;-65
2022/02/23 01:41:03;;;;;;;13.55;5.55;;;;;;;9.17;61.49;100934.61;1921626;75;21121;-65
2022/02/23 01:43:32;;;;;;;12.43;4.90;;;;;;;9.19;61.60;100938.90;1922912;75;21492;-65
2022/02/23 01:46:01;;;;;;;11.73;4.87;;;;;;;9.21;61.67;100942.34;1922687;75;21062;-66
2022/02/23 01:48:29;;;;;;;10.13;5.03;;;;;;;9.18;61.41;100945.05;1922653;75;21504;-66
2022/02/23 01:50:58;;;;;;;14.15;5.40;;;;;;;9.10;61.44;100948.37;1922800;75;21042;-64
2022/02/23 01:53:27;;;;;;;11.28;4.42;;;;;;;9.01;61.52;100944.70;1939599;74;21198;-64
2022/02/23 01:55:55;;;;;;;13.58;4.47;;;;;;;9.00;62.42;100945.59;1948868;74;21163;-63
2022/02/23 01:58:24;;;;;;;10.90;4.95;;;;;;;9.02;62.37;100942.50;1948646;74;21031;-66
2022/02/23 02:00:52;;;;;;;11.75;4.67;;;;;;;9.00;62.37;100940.34;1948886;74;21111;-63
2022/02/23 02:03:21;;;;;;;14.15;5.10;;;;;;;9.01;62.65;100938.13;1936158;73;21054;-65
2022/02/23 02:05:50;;;;;;;13.03;5.03;;;;;;;9.00;62.59;100936.39;1922561;75;21136;-67
2022/02/23 02:08:19;;;;;;;15.30;4.60;;;;;;;8.99;62.84;100942.58;1922653;75;21570;-64
2022/02/23 02:10:47;;;;;;;10.98;4.50;;;;;;;8.97;62.81;100949.64;1922888;75;21042;-63
2022/02/23 02:13:16;;;;;;;12.37;4.87;;;;;;;8.95;62.83;100957.56;1922638;75;21114;-63
2022/02/23 02:15:45;;;;;;;13.25;5.42;;;;;;;8.88;62.65;100954.23;1922851;74;21046;-64
2022/02/23 02:18:14;;;;;;;15.43;6.42;;;;;;;8.81;62.69;100963.19;1934152;74;21021;-65
2022/02/23 02:20:42;;;;;;;14.33;5.95;;;;;;;8.71;62.83;100973.55;1945008;74;21093;-63
2022/02/23 02:23:11;;;;;;;17.12;5.58;;;;;;;8.60;63.00;100970.37;1945033;74;21035;-64
2022/02/23 02:25:40;;;;;;;11.15;5.95;;;;;;;8.54;63.95;100966.58;1945024;74;21203;-63
2022/02/23 02:28:08;;;;;;;11.78;5.05;;;;;;;8.53;63.99;100957.84;1943662;74;20999;-65
2022/02/23 02:30:37;;;;;;;13.75;5.05;;;;;;;8.54;64.70;100952.14;1945022;74;21167;-63
2022/02/23 02:33:06;;;;;;;16.93;5.33;;;;;;;8.54;65.08;100952.14;1944790;74;21109;-65
2022/02/23 02:35:36;;;;;;;14.05;5.90;;;;;;;8.55;65.06;100952.56;1896132;76;21018;-65
2022/02/23 02:38:06;;;;;;;14.07;5.80;;;;;;;8.50;64.95;100953.55;1896182;76;21111;-66
2022/02/23 02:40:35;;;;;;;11.83;4.97;;;;;;;8.50;65.49;100962.73;1889460;76;21552;-64
2022/02/23 02:43:07;;;;;;;13.83;4.92;;;;;;;8.50;65.35;100962.73;1884494;75;21069;-64
2022/02/23 02:45:35;;;;;;;11.22;5.55;;;;;;;8.48;65.55;100970.23;1911423;75;21046;-65
2022/02/23 02:48:04;;;;;;;16.25;5.90;;;;;;;8.44;65.51;100973.38;1911647;75;21529;-64
2022/02/23 02:50:33;;;;;;;15.48;5.67;;;;;;;8.44;65.29;100977.78;1911627;75;21096;-62
2022/02/23 02:53:02;;;;;;;15.48;5.60;;;;;;;8.37;65.08;100996.70;1911529;75;21006;-63
2022/02/23 02:55:31;;;;;;;15.65;5.70;;;;;;;8.31;65.15;100998.19;1911647;75;21441;-62
2022/02/23 02:58:00;;;;;;;17.37;5.92;;;;;;;8.24;65.31;100992.69;1911226;75;21072;-63
2022/02/23 03:00:29;;;;;;;12.65;4.70;;;;;;;8.17;65.23;100994.62;1911295;75;21006;-65
2022/02/23 03:02:57;;;;;;;18.40;7.97;;;;;;;8.14;65.34;100999.08;1911505;75;21081;-64
2022/02/23 03:05:29;;;;;;;18.42;8.30;;;;;;;8.16;65.52;100998.59;1911516;75;21062;-61
2022/02/23 03:07:57;;;;;;;21.50;9.65;;;;;;;8.19;65.64;101002.42;1911547;75;21439;-62
2022/02/23 03:10:25;;;;;;;16.73;6.80;;;;;;;8.23;65.75;101001.47;1911525;75;21038;-64
2022/02/23 03:12:54;;;;;;;15.83;6.67;;;;;;;8.26;65.83;101000.06;1911646;75;21027;-62
2022/02/23 03:15:23;;;;;;;20.43;7.65;;;;;;;8.26;65.70;101007.94;1911590;75;21112;-61
2022/02/23 03:17:52;;;;;;;22.77;12.23;;;;;;;8.18;65.66;101012.06;1911574;75;21034;-63
2022/02/23 03:20:21;;;;;;;19.65;6.95;;;;;;;8.11;65.77;101014.00;1911503;75;21003;-61
2022/02/23 03:22:49;;;;;;;18.95;6.62;;;;;;;8.08;65.78;101011.44;1911556;75;21031;-63
2022/02/23 03:25:18;;;;;;;17.70;5.90;;;;;;;8.05;65.96;101011.50;1911535;75;21109;-66
2022/02/23 03:27:47;;;;;;;20.80;6.25;;;;;;;8.06;66.25;101017.59;1911500;75;21103;-62
2022/02/23 03:30:16;;;;;;;15.50;5.87;;;;;;;8.01;66.03;101025.59;1911325;75;21093;-62
2022/02/23 03:32:46;;;;;;;19.60;5.80;;;;;;;7.96;66.06;101027.45;1911560;75;21039;-62
2022/02/23 03:35:14;;;;;;;21.50;5.97;;;;;;;7.90;66.15;101031.08;1911431;75;21049;-62
2022/02/23 03:37:43;;;;;;;13.78;6.05;;;;;;;7.88;66.24;101022.85;1911368;75;21120;-64
2022/02/23 03:40:12;;;;;;;17.55;6.37;;;;;;;7.86;66.33;101016.78;1911658;75;21120;-65
2022/02/23 03:42:41;;;;;;;19.87;6.50;;;;;;;7.88;66.42;101024.16;1931357;74;21128;-64
2022/02/23 03:45:10;;;;;;;15.90;6.80;;;;;;;7.90;66.43;101026.30;1935325;74;21027;-62
2022/02/23 03:47:39;;;;;;;22.02;6.90;;;;;;;7.87;66.45;101028.98;1935208;74;21067;-60
2022/02/23 03:50:08;;;;;;;14.00;5.85;;;;;;;7.84;66.50;101033.86;1935352;74;21082;-62
2022/02/23 03:52:37;;;;;;;15.50;5.47;;;;;;;7.80;66.51;101031.33;1925429;74;20991;-61
2022/02/23 03:55:07;;;;;;;19.05;5.55;;;;;;;7.76;66.57;101040.16;1915932;75;21097;-61
2022/02/23 03:57:36;;;;;;;15.08;5.72;;;;;;;7.70;66.68;101040.70;1915988;75;21022;-60
2022/02/23 04:00:10;;;;;;;18.48;6.30;;;;;;;7.66;66.76;101040.37;1915795;75;21042;-61
2022/02/23 04:02:40;;;;;;;13.88;5.58;;;;;;;7.62;66.81;101040.03;1917663;74;21157;-61
2022/02/23 04:05:10;;;;;;;13.95;6.17;;;;;;;7.58;66.93;101046.67;1915920;75;21482;-62
2022/02/23 04:07:39;;;;;;;16.00;6.45;;;;;;;7.56;67.02;101053.25;1916011;75;21042;-64
2022/02/23 04:10:08;;;;;;;11.60;4.85;;;;;;;7.53;67.08;101054.64;1926922;74;21078;-64
2022/02/23 04:12:37;;;;;;;14.55;5.10;;;;;;;7.48;67.28;101062.58;1935298;74;21051;-63
2022/02/23 04:15:06;;;;;;;13.45;5.70;;;;;;;7.47;67.25;101059.99;1935087;74;21121;-61
2022/02/23 04:17:35;;;;;;;14.07;6.03;;;;;;;7.46;67.34;101070.93;1935223;74;21028;-61
2022/02/23 04:20:05;;;;;;;14.90;5.80;;;;;;;7.46;67.31;101066.14;1933899;74;21101;-63
2022/02/23 04:22:34;;;;;;;14.38;5.80;;;;;;;7.45;67.34;101072.27;1935303;74;21035;-63
2022/02/23 04:25:04;;;;;;;16.20;6.03;;;;;;;7.45;67.34;101070.53;1935246;74;21023;-65
2022/02/23 04:27:33;;;;;;;24.43;8.80;;;;;;;7.46;67.45;101078.79;1933267;74;21042;-66
2022/02/23 04:30:02;;;;;;;22.80;9.20;;;;;;;7.49;67.49;101080.50;1913140;74;21544;-67
2022/02/23 04:32:31;;;;;;;19.12;8.55;;;;;;;7.52;67.49;101086.97;1919700;75;21112;-64
2022/02/23 04:35:00;;;;;;;22.73;8.95;;;;;;;7.56;67.61;101087.77;1919610;75;21586;-65
2022/02/23 04:37:29;;;;;;;26.15;10.95;;;;;;;7.73;67.86;101094.39;1919657;75;21066;-66
2022/02/23 04:40:00;;;;;;;25.15;9.15;;;;;;;7.92;67.85;101091.36;1919592;75;21168;-65
2022/02/23 04:42:29;;;;;;;18.55;7.25;;;;;;;8.10;67.74;101094.87;1919787;74;21137;-67
2022/02/23 04:45:00;;;;;;;21.05;7.45;;;;;;;8.29;67.56;101094.44;1919782;75;21143;-65
2022/02/23 04:47:30;;;;;;;20.68;7.25;;;;;;;8.44;67.48;101088.84;1922834;74;21101;-66
2022/02/23 04:49:59;;;;;;;16.17;6.40;;;;;;;8.54;67.36;101092.55;1923246;74;21038;-65
2022/02/23 04:52:28;;;;;;;20.27;6.12;;;;;;;8.68;67.32;101091.77;1923204;74;21563;-67
2022/02/23 04:54:57;;;;;;;17.90;6.65;;;;;;;8.85;67.17;101076.45;1923222;74;20999;-64
2022/02/23 04:57:26;;;;;;;18.15;6.33;;;;;;;9.13;66.77;101077.02;1923196;74;21473;-65
2022/02/23 04:59:55;;;;;;;21.68;8.10;;;;;;;9.40;66.44;101077.98;1923287;74;21023;-64
2022/02/23 05:02:25;;;;;;;19.90;7.05;;;;;;;9.69;66.07;101086.80;1923204;74;21169;-66
2022/02/23 05:04:53;;;;;;;15.50;6.37;;;;;;;9.90;65.78;101092.31;1923200;74;21047;-62
2022/02/23 05:07:24;;;;;;;19.17;8.68;;;;;;;10.03;65.73;101089.27;1919708;74;21497;-65
2022/02/23 05:09:53;;;;;;;24.92;7.45;;;;;;;10.16;65.54;101087.55;1906460;75;21113;-64
2022/02/23 05:12:22;;;;;;;19.50;7.05;;;;;;;10.47;64.96;101087.91;1906334;75;21486;-66
2022/02/23 05:14:50;;;;;;;29.98;8.55;;;;;;;10.83;64.52;101092.41;1944035;74;21034;-66
2022/02/23 05:17:19;;;;;;;17.20;6.97;;;;;;;11.23;64.19;101092.30;1945097;74;21159;-64
2022/02/23 05:19:48;;;;;;;23.92;7.00;;;;;;;11.61;63.84;101096.62;1941595;74;21540;-64
2022/02/23 05:22:17;;;;;;;21.07;6.67;;;;;;;11.95;63.46;101090.07;1916097;75;21089;-64
2022/02/23 05:24:46;;;;;;;18.27;6.75;;;;;;;12.25;63.12;101090.66;1916197;75;21015;-64
2022/02/23 05:27:15;;;;;;;22.90;7.25;;;;;;;12.58;62.67;101086.23;1915961;75;21485;-65
2022/02/23 05:29:43;;;;;;;18.37;7.53;;;;;;;12.93;62.01;101090.01;1916040;75;21007;-65
2022/02/23 05:32:12;;;;;;;20.80;7.80;;;;;;;13.25;61.42;101086.41;1943717;74;21019;-65
2022/02/23 05:34:41;;;;;;;19.12;7.25;;;;;;;13.55;60.97;101086.44;1945018;74;21035;-64
2022/02/23 05:37:09;;;;;;;19.17;6.78;;;;;;;13.87;60.39;101097.72;1945042;74;21055;-66
2022/02/23 05:39:39;;;;;;;19.77;7.12;;;;;;;14.17;60.03;101093.21;1945389;74;21114;-64
2022/02/23 05:42:09;;;;;;;23.85;7.10;;;;;;;14.47;59.32;101084.69;1916488;74;21520;-67
2022/02/23 05:44:38;;;;;;;21.73;7.42;;;;;;;14.92;58.49;101089.08;1922637;75;21042;-67
2022/02/23 05:47:07;;;;;;;18.85;6.55;;;;;;;15.29;57.78;101092.01;1922819;75;21641;-64
2022/02/23 05:49:35;;;;;;;16.05;6.15;;;;;;;15.73;56.98;101094.06;1922684;75;21054;-63
2022/02/23 05:52:05;;;;;;;31.00;7.62;;;;;;;16.15;55.96;101093.94;1931970;74;21015;-64
2022/02/23 05:54:33;;;;;;;22.98;6.92;;;;;;;16.50;55.27;101082.23;1894526;76;21112;-67
2022/02/23 05:57:02;;;;;;;20.60;6.25;;;;;;;16.86;54.45;101091.20;1894540;76;21038;-69
2022/02/23 05:59:31;;;;;;;20.85;7.05;;;;;;;17.19;53.20;101086.12;1894477;76;21196;-64
2022/02/23 06:02:01;;;;;;;17.07;6.67;;;;;;;17.45;52.53;101092.97;1900242;74;21171;-61
2022/02/23 06:04:30;;;;;;;24.25;6.67;;;;;;;17.84;51.42;101096.25;1938675;74;21026;-66
2022/02/23 06:06:59;;;;;;;20.82;6.17;;;;;;;18.26;50.28;101090.45;1929624;74;21480;-63
2022/02/23 06:09:28;;;;;;;24.77;6.20;;;;;;;18.56;49.42;101087.19;1924540;74;21042;-64
2022/02/23 06:11:58;;;;;;;20.25;6.30;;;;;;;18.77;48.75;101096.39;1928586;74;21061;-62
2022/02/23 06:14:28;;;;;;;21.33;7.65;;;;;;;19.12;47.79;101096.30;1929548;74;21112;-62
2022/02/23 06:16:56;;;;;;;22.48;6.70;;;;;;;19.42;46.98;101094.16;1929308;74;21530;-63
2022/02/23 06:19:25;;;;;;;17.65;5.70;;;;;;;19.80;46.22;101092.41;1929431;74;21030;-65
2022/02/23 06:21:54;;;;;;;20.45;6.15;;;;;;;20.02;45.52;101097.89;1929480;74;21108;-63
2022/02/23 06:24:23;;;;;;;20.10;7.45;;;;;;;20.34;44.61;101096.48;1929261;74;21533;-62
2022/02/23 06:26:52;;;;;;;22.93;6.20;;;;;;;20.70;43.81;101097.40;1929394;74;21124;-62
2022/02/23 06:29:21;;;;;;;20.75;6.50;;;;;;;20.88;43.11;101095.98;1929463;74;21010;-65
2022/02/23 06:32:04;;;;;;;18.45;6.53;;;;;;;21.11;42.71;101102.23;1929497;74;21073;-64
2022/02/23 06:34:34;;;;;;;16.97;6.25;;;;;;;21.36;42.23;101110.54;1929555;74;21010;-67
2022/02/23 06:37:03;;;;;;;17.75;5.83;;;;;;;21.69;41.60;101105.31;1929220;74;21091;-65
2022/02/23 06:39:33;;;;;;;15.55;5.40;;;;;;;22.17;40.91;101110.38;1929526;74;21542;-68
2022/02/23 06:42:04;;;;;;;18.48;5.85;;;;;;;22.64;39.71;101104.73;1929469;74;21099;-65
2022/02/23 06:44:33;;;;;;;15.38;5.95;;;;;;;22.82;39.13;101103.67;1921224;74;21132;-64
2022/02/23 06:47:02;;;;;;;14.85;4.97;;;;;;;23.06;38.65;101107.46;1919673;75;21546;-63
2022/02/23 06:49:34;;;;;;;13.38;5.03;;;;;;;23.42;37.68;101099.86;1911596;74;21042;-64
2022/02/23 06:52:02;;;;;;;15.20;5.67;;;;;;;23.69;36.86;101099.26;1909893;75;21096;-66
2022/02/23 06:54:32;;;;;;;15.80;5.67;;;;;;;23.92;35.84;101104.44;1919789;75;21551;-64
2022/02/23 06:57:00;;;;;;;14.75;5.12;;;;;;;24.19;35.65;101108.67;1920004;74;21461;-63
2022/02/23 06:59:29;;;;;;;19.65;6.53;;;;;;;24.37;35.14;101102.11;1916422;74;21171;-62
2022/02/23 07:01:58;;;;;;;17.52;6.20;;;;;;;24.41;34.80;101106.71;1891911;74;21069;-65
2022/02/23 07:04:26;;;;;;;21.65;6.40;;;;;;;24.51;34.20;101111.58;1894667;75;21426;-65
2022/02/23 07:06:55;;;;;;;19.00;7.58;;;;;;;24.83;33.81;101116.71;1919740;75;21054;-62
2022/02/23 07:09:24;;;;;;;21.40;7.47;;;;;;;24.90;33.87;101115.65;1919790;75;21046;-64
2022/02/23 07:11:53;;;;;;;17.20;6.72;;;;;;;25.02;34.08;101109.08;1919787;75;21046;-63
2022/02/23 07:14:22;;;;;;;18.37;7.85;;;;;;;25.21;34.06;101109.55;1919592;75;21422;-63
2022/02/23 07:16:51;;;;;;;23.55;7.58;;;;;;;25.29;33.38;101111.55;1919715;75;21074;-63
2022/02/23 07:19:21;;;;;;;23.73;6.37;;;;;;;25.40;33.18;101111.86;1919745;75;21196;-60
2022/02/23 07:21:50;;;;;;;21.10;7.62;;;;;;;25.41;33.15;101115.73;1919886;75;21532;-62
2022/02/23 07:24:19;;;;;;;19.32;6.20;;;;;;;25.26;33.31;101119.91;1919686;75;21078;-61
2022/02/23 07:26:48;;;;;;;16.25;6.80;;;;;;;25.40;33.33;101128.87;1915593;75;21026;-62
2022/02/23 07:29:17;;;;;;;21.35;6.85;;;;;;;25.65;33.10;101131.89;1874174;76;21104;-64
2022/02/23 07:31:46;;;;;;;15.60;6.75;;;;;;;25.78;32.52;101134.24;1889869;75;21112;-63
2022/02/23 07:34:15;;;;;;;19.25;6.80;;;;;;;26.05;32.13;101136.13;1910939;75;21035;-64
2022/02/23 07:36:45;;;;;;;16.02;6.22;;;;;;;26.48;31.46;101142.63;1910784;75;21531;-63
2022/02/23 07:39:13;;;;;;;14.73;6.92;;;;;;;26.36;31.18;101142.02;1910801;75;21486;-63
2022/02/23 07:41:42;;;;;;;25.75;7.47;;;;;;;26.46;31.18;101147.84;1910835;75;21125;-61
2022/02/23 07:44:11;;;;;;;18.60;7.40;;;;;;;26.63;30.77;101148.87;1923609;74;21151;-62
2022/02/23 07:46:40;;;;;;;18.42;8.03;;;;;;;26.87;30.48;101148.23;1929576;74;21081;-61
2022/02/23 07:49:09;;;;;;;22.87;6.67;;;;;;;26.95;30.21;101156.42;1929742;74;21069;-62
2022/02/23 07:51:38;;;;;;;15.80;6.35;;;;;;;27.13;30.05;101159.06;1940550;71;21141;-59
2022/02/23 07:54:06;;;;;;;14.63;5.95;;;;;;;27.24;29.70;101152.07;1976674;71;21119;-65
2022/02/23 07:56:36;;;;;;;17.42;6.67;;;;;;;27.37;29.81;101156.22;1953375;73;21479;-60
2022/02/23 07:59:04;;;;;;;15.28;6.72;;;;;;;27.71;29.24;101153.53;1915983;74;21484;-62
2022/02/23 08:01:35;;;;;;;12.73;6.12;;;;;;;28.02;28.75;101158.44;1897386;75;21113;-63
2022/02/23 08:04:05;;;;;;;12.47;6.50;;;;;;;28.20;28.30;101158.30;1922810;74;21096;-62
2022/02/23 08:06:34;;;;;;;10.95;5.70;;;;;;;28.25;27.85;101160.00;1931582;74;21089;-61
2022/02/23 08:09:03;;;;;;;12.07;5.78;;;;;;;28.00;27.52;101151.83;1930541;74;21486;-61
2022/02/23 08:11:35;;;;;;;13.20;6.10;;;;;;;27.69;27.79;101145.58;1931579;74;21050;-61
2022/02/23 08:14:03;;;;;;;14.75;6.53;;;;;;;27.96;28.09;101147.76;1930405;74;21020;-64
2022/02/23 08:19:34;;;;;;;13.00;6.53;;;;;;;28.05;27.66;101142.72;1934427;74;21023;-62
2022/02/23 08:22:07;;;;;;;;;;;;;;;28.16;27.73;101148.81;1940482;73;21128;-61
2022/02/23 08:24:39;;;;;;;15.63;6.85;;;;;;;28.26;28.06;101140.05;1922048;74;20102;-62
2022/02/23 08:27:10;;;;;;;11.60;5.55;;;;;;;28.48;27.54;101144.81;1930935;74;21015;-60
2022/02/23 08:29:40;;;;;;;16.93;7.90;;;;;;;28.77;27.55;101142.14;1918817;74;21115;-62
2022/02/23 08:32:14;;;;;;;12.15;6.55;;;;;;;29.26;26.76;101133.15;1927346;74;21081;-62
2022/02/23 08:34:45;;;;;;;13.40;6.50;;;;;;;29.43;26.37;101130.71;1896050;75;21160;-62
2022/02/23 08:37:16;;;;;;;13.40;7.05;;;;;;;29.64;25.97;101133.38;1870404;75;21121;-64
2022/02/23 08:39:46;;;;;;;17.27;6.85;;;;;;;29.75;25.78;101144.37;1932663;73;21016;-59
2022/02/23 08:42:17;;;;;;;13.88;6.33;;;;;;;29.54;25.86;101138.16;1920736;74;21448;-59
2022/02/23 08:44:45;;;;;;;14.07;5.72;;;;;;;29.52;25.66;101142.39;1924265;74;21559;-60
2022/02/23 08:47:15;;;;;;;11.65;5.92;;;;;;;29.82;25.42;101139.44;1895546;76;21046;-59
2022/02/23 08:49:44;;;;;;;20.50;6.50;;;;;;;30.15;24.90;101139.77;1895658;76;21866;-61
2022/02/23 08:52:13;;;;;;;12.28;5.35;;;;;;;30.16;24.74;101137.39;1913836;74;21035;-60
2022/02/23 08:54:42;;;;;;;16.67;6.00;;;;;;;29.99;24.81;101149.70;1901744;75;21082;-61
2022/02/23 08:57:10;;;;;;;11.85;5.53;;;;;;;29.96;24.90;101144.62;1942647;73;21212;-63
2022/02/23 08:59:39;;;;;;;12.13;6.22;;;;;;;29.96;25.25;101145.97;1927779;74;21093;-61
2022/02/23 09:02:08;;;;;;;15.45;6.15;;;;;;;30.03;25.24;101141.53;1927591;74;21148;-61
2022/02/23 09:04:37;;;;;;;9.93;6.05;;;;;;;30.06;25.37;101146.27;1927848;74;21055;-60
2022/02/23 09:07:06;;;;;;;10.75;5.12;;;;;;;30.15;25.26;101141.12;1948582;73;20979;-61
2022/02/23 09:09:35;;;;;;;13.08;5.50;;;;;;;30.16;25.04;101142.83;1962387;73;21019;-60
2022/02/23 09:12:05;;;;;;;13.68;6.30;;;;;;;30.18;24.94;101146.20;1962111;73;21019;-60
2022/02/23 09:14:35;;;;;;;12.53;6.37;;;;;;;30.09;25.02;101141.84;1961886;73;21002;-58
2022/02/23 09:17:04;;;;;;;20.43;7.55;;;;;;;29.98;24.81;101142.56;1943615;73;21087;-59
2022/02/23 09:19:33;;;;;;;12.05;5.53;;;;;;;30.23;24.67;101145.16;1909632;75;21033;-59
2022/02/23 09:22:02;;;;;;;13.13;5.37;;;;;;;30.27;24.66;101143.77;1943382;74;21045;-58
2022/02/23 09:24:31;;;;;;;12.70;5.15;;;;;;;30.28;24.64;101136.45;1909532;75;21115;-59
2022/02/23 09:27:02;;;;;;;11.38;4.87;;;;;;;30.48;24.55;101143.66;1943142;74;21199;-59
2022/02/23 09:29:39;;;;;;;15.88;7.35;;;;;;;30.63;24.28;101146.42;1909590;75;21085;-59
2022/02/23 09:32:03;;;;;;;9.13;5.10;;;;;;;30.63;24.39;101141.83;1968352;73;21474;-58
2022/02/23 09:34:32;;;;;;;13.10;5.40;;;;;;;30.82;24.33;101136.92;1969811;73;21466;-59
2022/02/23 09:37:01;;;;;;;16.82;5.80;;;;;;;30.63;24.13;101137.75;1969846;73;21103;-59
2022/02/23 09:39:30;;;;;;;12.23;5.22;;;;;;;30.69;24.48;101134.33;1907841;75;21088;-59
2022/02/23 09:42:00;;;;;;;7.50;4.95;;;;;;;30.86;24.53;101130.08;1943278;74;21681;-60
2022/02/23 09:44:30;;;;;;;12.05;5.75;;;;;;;30.87;24.36;101131.78;1909621;75;21163;-59
2022/02/23 09:47:01;;;;;;;11.28;5.80;;;;;;;31.12;24.15;101129.19;1943460;74;21550;-58
2022/02/23 09:49:31;;;;;;;16.25;8.23;;;;;;;31.26;23.77;101125.30;1909632;75;21100;-57
2022/02/23 09:52:00;;;;;;;14.80;6.15;;;;;;;31.15;23.67;101130.19;1943136;74;21547;-57
2022/02/23 09:54:29;;;;;;;9.45;5.65;;;;;;;31.12;23.51;101137.87;1906071;75;21565;-58
2022/02/23 09:56:57;;;;;;;7.83;4.72;;;;;;;30.73;23.53;101125.30;1938004;74;21569;-57
2022/02/23 09:59:26;;;;;;;13.00;5.87;;;;;;;30.78;23.75;101126.43;1904817;75;21161;-58
2022/02/23 10:01:55;;;;;;;10.20;5.15;;;;;;;30.64;23.95;101127.75;1938004;74;21010;-56
2022/02/23 10:04:25;;;;;;;12.55;6.10;;;;;;;30.58;24.05;101130.66;1904664;75;21066;-58
2022/02/23 10:06:55;;;;;;;13.03;6.05;;;;;;;30.53;24.22;101133.09;1937931;74;21526;-58
2022/02/23 10:09:24;;;;;;;15.60;7.55;;;;;;;29.13;25.65;101128.23;1904904;75;21041;-58
2022/02/23 10:11:54;;;;;;;13.93;6.17;;;;;;;27.92;27.06;101128.78;1938002;74;21094;-58
2022/02/23 10:14:23;;;;;;;12.73;6.15;;;;;;;26.89;28.30;101132.23;1904777;75;21069;-60
2022/02/23 10:16:52;;;;;;;14.80;5.62;;;;;;;26.80;28.59;101133.66;1949510;73;21092;-60
2022/02/23 10:19:22;;;;;;;9.80;5.58;;;;;;;26.88;28.75;101135.92;1959813;73;21089;-58
2022/02/23 10:21:56;;;;;;;11.35;5.60;;;;;;;27.06;28.78;101127.79;1959264;73;21011;-60
2022/02/23 10:24:33;;;;;;;11.60;5.78;;;;;;;27.18;28.63;101125.66;1960016;73;21027;-58
2022/02/23 10:27:10;;;;;;;19.98;6.65;;;;;;;27.14;28.57;101131.05;1958687;73;21019;-60
2022/02/23 10:29:57;;;;;;;9.98;5.85;;;;;;;27.46;28.47;101136.33;1949128;73;21077;-60
2022/02/23 10:32:26;;;;;;;12.37;6.53;;;;;;;27.89;27.98;101134.50;1903854;75;21017;-59
2022/02/23 10:34:59;;;;;;;10.60;5.80;;;;;;;28.22;27.49;101130.06;1929524;74;21036;-64
2022/02/23 10:37:31;;;;;;;24.75;7.00;;;;;;;28.28;27.45;101133.45;1972996;73;21489;-61
2022/02/23 10:40:00;;;;;;;14.00;5.80;;;;;;;28.17;27.48;101127.52;1972626;73;21034;-60
2022/02/23 10:42:34;;;;;;;21.68;6.50;;;;;;;28.17;27.49;101128.86;1902224;75;21047;-61
2022/02/23 10:45:06;;;;;;;16.15;7.30;;;;;;;28.54;27.32;101127.59;1937506;74;21040;-61
2022/02/23 10:47:39;;;;;;;18.35;6.83;;;;;;;28.83;26.88;101127.93;1969171;73;21022;-63
2022/02/23 10:50:21;;;;;;;14.60;7.03;;;;;;;28.49;27.15;101126.18;1968945;73;21131;-63
2022/02/23 10:52:58;;;;;;;16.60;7.87;;;;;;;27.21;28.56;101125.35;1933854;74;21075;-61
2022/02/23 10:55:29;;;;;;;13.15;6.05;;;;;;;25.83;30.10;101131.11;1935044;74;21163;-60
2022/02/23 10:58:01;;;;;;;9.60;5.22;;;;;;;24.98;31.03;101131.92;1929946;74;21489;-60
2022/02/23 11:00:44;;;;;;;20.75;6.95;;;;;;;24.59;31.61;101133.31;1956382;73;21153;-64
2022/02/23 11:03:08;;;;;;;19.23;7.70;;;;;;;24.81;31.82;101132.67;1955349;73;21034;-64
2022/02/23 11:05:38;;;;;;;13.88;6.10;;;;;;;24.90;31.93;101126.42;1957769;73;21026;-65
2022/02/23 11:08:11;;;;;;;14.95;6.67;;;;;;;25.49;31.50;101131.67;1957894;73;21031;-59
2022/02/23 11:10:37;;;;;;;14.43;5.97;;;;;;;25.98;31.21;101128.28;1957170;73;21011;-61
2022/02/23 11:13:06;;;;;;;11.50;5.20;;;;;;;26.62;30.31;101129.13;1957570;73;21128;-62
2022/02/23 11:15:35;;;;;;;26.68;6.70;;;;;;;26.88;30.11;101135.09;1957714;73;21093;-60
2022/02/23 11:18:05;;;;;;;18.32;5.85;;;;;;;27.15;29.82;101128.70;1946523;74;21120;-59
2022/02/23 11:20:34;;;;;;;11.95;5.55;;;;;;;26.84;30.09;101137.25;1946662;74;21003;-60
2022/02/23 11:23:05;;;;;;;11.43;5.78;;;;;;;26.70;30.29;101131.05;1954717;73;21015;-65
2022/02/23 11:25:39;;;;;;;11.57;6.25;;;;;;;25.80;31.12;101133.11;1942588;74;21058;-62
2022/02/23 11:28:27;;;;;;;16.57;7.40;;;;;;;24.97;32.18;101121.29;1942572;74;21034;-60
2022/02/23 11:31:02;;;;;;;14.50;6.70;;;;;;;24.04;33.31;101135.12;1942181;74;21034;-60
2022/02/23 11:33:48;;;;;;;16.30;6.97;;;;;;;23.17;34.61;101134.74;1942703;74;21136;-60
2022/02/23 11:36:49;;;;;;;16.48;7.62;;;;;;;22.67;35.56;101140.72;1910410;74;21543;-60